createdAt,value
2017-12-09T00:00:30.090Z,2.98
2017-12-09T00:03:02.020Z,2.98
2017-12-09T00:05:34.276Z,3.02
2017-12-09T00:08:08.065Z,3.04
2017-12-09T00:10:39.861Z,3.07
2017-12-09T00:13:11.198Z,3.12
2017-12-09T00:15:42.817Z,3.18
2017-12-09T00:18:15.599Z,3.17
2017-12-09T00:20:47.948Z,3.16
2017-12-09T00:23:19.924Z,3.07
2017-12-09T00:25:51.329Z,3.18
2017-12-09T00:28:22.878Z,3.31
2017-12-09T00:30:54.729Z,3.23
2017-12-09T00:33:26.163Z,3.30
2017-12-09T00:35:57.939Z,3.31
2017-12-09T00:38:29.331Z,3.32
2017-12-09T00:41:00.897Z,3.36
2017-12-09T00:43:33.761Z,3.32
2017-12-09T00:46:07.680Z,3.36
2017-12-09T00:48:39.113Z,3.31
2017-12-09T00:51:10.716Z,3.32
2017-12-09T00:53:42.232Z,3.33
2017-12-09T00:56:15.800Z,3.33
2017-12-09T00:58:48.223Z,3.34
2017-12-09T01:01:19.539Z,3.39
2017-12-09T01:03:51.139Z,3.33
2017-12-09T01:06:22.508Z,3.44
2017-12-09T01:08:53.874Z,3.40
2017-12-09T01:11:25.510Z,3.42
2017-12-09T01:13:56.866Z,3.29
2017-12-09T01:16:38.852Z,3.31
2017-12-09T01:19:10.452Z,3.36
2017-12-09T01:21:41.745Z,3.32
2017-12-09T01:24:15.260Z,3.29
2017-12-09T01:26:46.871Z,3.39
2017-12-09T01:29:18.242Z,3.42
2017-12-09T01:31:49.543Z,3.42
2017-12-09T01:34:22.118Z,3.43
2017-12-09T01:36:54.418Z,3.50
2017-12-09T01:39:26.197Z,3.49
2017-12-09T01:41:57.768Z,3.52
2017-12-09T01:44:29.266Z,3.50
2017-12-09T01:47:00.997Z,3.41
2017-12-09T01:49:32.527Z,3.47
2017-12-09T01:52:06.813Z,3.49
2017-12-09T01:54:38.171Z,3.56
2017-12-09T01:57:09.590Z,3.51
2017-12-09T01:59:40.950Z,3.49
2017-12-09T02:02:13.261Z,3.52
2017-12-09T02:04:45.792Z,3.59
2017-12-09T02:07:17.228Z,3.59
2017-12-09T02:09:49.402Z,3.52
2017-12-09T02:12:22.136Z,3.48
2017-12-09T02:14:53.880Z,3.42
2017-12-09T02:17:25.236Z,3.51
2017-12-09T02:19:56.739Z,3.49
2017-12-09T02:22:28.143Z,3.47
2017-12-09T02:24:59.846Z,3.52
2017-12-09T02:27:31.398Z,3.36
2017-12-09T02:30:04.392Z,3.40
2017-12-09T02:32:36.060Z,3.37
2017-12-09T02:35:07.444Z,3.33
2017-12-09T02:37:39.116Z,3.21
2017-12-09T02:40:10.609Z,3.20
2017-12-09T02:42:42.694Z,3.15
2017-12-09T02:45:14.443Z,3.11
2017-12-09T02:47:45.829Z,3.18
2017-12-09T02:50:17.287Z,3.23
2017-12-09T02:52:48.947Z,3.31
2017-12-09T02:55:20.375Z,3.30
2017-12-09T02:57:52.342Z,3.19
2017-12-09T03:00:23.730Z,3.23
2017-12-09T03:02:55.071Z,3.12
2017-12-09T03:05:26.726Z,3.12
2017-12-09T03:07:58.076Z,3.12
2017-12-09T03:10:29.496Z,3.06
2017-12-09T03:13:01.197Z,3.02
2017-12-09T03:15:32.835Z,3.01
2017-12-09T03:18:07.487Z,2.94
2017-12-09T03:20:38.879Z,2.88
2017-12-09T03:23:11.529Z,2.88
2017-12-09T03:25:43.332Z,2.86
2017-12-09T03:28:14.907Z,2.85
2017-12-09T03:30:46.312Z,2.85
2017-12-09T03:33:17.949Z,2.82
2017-12-09T03:35:49.306Z,2.78
2017-12-09T03:38:22.168Z,2.79
2017-12-09T03:40:53.795Z,2.77
2017-12-09T03:43:25.260Z,2.72
2017-12-09T03:45:57.084Z,2.67
2017-12-09T03:48:28.448Z,2.67
2017-12-09T03:50:59.838Z,2.61
2017-12-09T03:53:31.836Z,2.59
2017-12-09T03:56:05.796Z,2.56
2017-12-09T03:58:37.493Z,2.55
2017-12-09T04:01:08.872Z,2.50
2017-12-09T04:03:40.241Z,2.47
2017-12-09T04:06:11.641Z,2.47
2017-12-09T04:08:43.544Z,2.42
2017-12-09T04:11:15.185Z,2.39
2017-12-09T04:13:47.471Z,2.41
2017-12-09T04:16:19.873Z,2.36
2017-12-09T04:18:51.336Z,2.36
2017-12-09T04:21:23.050Z,2.37
2017-12-09T04:23:54.708Z,2.34
2017-12-09T04:26:26.073Z,2.38
2017-12-09T04:28:57.441Z,2.31
2017-12-09T04:31:29.159Z,2.30
2017-12-09T04:34:00.468Z,2.27
2017-12-09T04:36:31.928Z,2.27
2017-12-09T04:39:03.919Z,2.20
2017-12-09T04:41:35.276Z,2.20
2017-12-09T04:44:06.784Z,2.15
2017-12-09T04:46:38.536Z,2.19
2017-12-09T04:49:10.175Z,2.19
2017-12-09T04:51:42.104Z,2.19
2017-12-09T04:54:13.603Z,2.16
2017-12-09T04:56:44.948Z,2.12
2017-12-09T04:59:16.580Z,2.13
2017-12-09T05:01:48.591Z,2.12
2017-12-09T05:04:20.046Z,2.07
2017-12-09T05:06:52.678Z,2.08
2017-12-09T05:09:24.025Z,2.08
2017-12-09T05:11:55.623Z,2.13
2017-12-09T05:14:26.992Z,2.07
2017-12-09T05:16:58.393Z,2.07
2017-12-09T05:19:30.048Z,2.01
2017-12-09T05:22:02.695Z,2.01
2017-12-09T05:24:34.404Z,2.01
2017-12-09T05:27:05.815Z,1.98
2017-12-09T05:29:37.199Z,2.00
2017-12-09T05:32:09.222Z,2.01
2017-12-09T05:34:41.211Z,1.99
2017-12-09T05:37:12.673Z,1.98
2017-12-09T05:39:44.298Z,1.98
2017-12-09T05:42:15.659Z,1.94
2017-12-09T05:44:47.020Z,1.91
2017-12-09T05:47:18.938Z,1.94
2017-12-09T05:49:50.299Z,1.93
2017-12-09T05:52:22.084Z,1.92
2017-12-09T05:54:53.919Z,1.93
2017-12-09T05:57:25.244Z,1.95
2017-12-09T05:59:56.717Z,1.98
2017-12-09T06:02:28.409Z,1.92
2017-12-09T06:04:59.800Z,1.93
2017-12-09T06:07:31.379Z,1.94
2017-12-09T06:10:06.062Z,1.89
2017-12-09T06:12:37.438Z,1.92
2017-12-09T06:15:09.127Z,1.92
2017-12-09T06:17:40.486Z,1.87
2017-12-09T06:20:12.507Z,1.90
2017-12-09T06:22:45.648Z,1.85
2017-12-09T06:25:17.000Z,1.87
2017-12-09T06:27:49.680Z,1.88
2017-12-09T06:30:21.508Z,1.88
2017-12-09T06:32:52.990Z,1.88
2017-12-09T06:38:07.971Z,1.89
2017-12-09T06:40:40.486Z,1.89
2017-12-09T06:43:12.148Z,1.92
2017-12-09T06:45:43.635Z,1.89
2017-12-09T06:48:16.998Z,1.91
2017-12-09T06:50:48.667Z,1.94
2017-12-09T06:53:20.557Z,1.97
2017-12-09T06:55:51.949Z,1.95
2017-12-09T06:58:23.772Z,1.93
2017-12-09T07:00:55.137Z,1.94
2017-12-09T07:03:26.820Z,1.98
2017-12-09T07:05:58.230Z,1.98
2017-12-09T07:08:29.591Z,1.96
2017-12-09T07:11:01.517Z,1.97
2017-12-09T07:13:33.336Z,1.93
2017-12-09T07:16:07.615Z,1.95
2017-12-09T07:18:39.265Z,1.96
2017-12-09T07:21:10.644Z,1.94
2017-12-09T07:23:42.295Z,1.93
2017-12-09T07:26:15.992Z,1.95
2017-12-09T07:28:48.126Z,1.94
2017-12-09T07:31:19.787Z,1.97
2017-12-09T07:33:51.198Z,2.01
2017-12-09T07:36:22.547Z,2.06
2017-12-09T07:38:54.170Z,2.14
2017-12-09T07:41:25.564Z,2.21
2017-12-09T07:43:56.905Z,2.23
2017-12-09T07:46:28.337Z,2.20
2017-12-09T07:48:59.956Z,2.26
2017-12-09T07:51:31.520Z,2.33
2017-12-09T07:54:04.299Z,2.36
2017-12-09T07:56:35.680Z,2.35
2017-12-09T07:59:07.080Z,2.56
2017-12-09T08:01:38.971Z,2.78
2017-12-09T08:04:10.698Z,2.91
2017-12-09T08:06:42.071Z,2.90
2017-12-09T08:09:13.733Z,2.80
2017-12-09T08:11:45.115Z,2.77
2017-12-09T08:14:17.322Z,2.77
2017-12-09T08:16:48.644Z,2.78
2017-12-09T08:19:20.040Z,2.82
2017-12-09T08:21:53.636Z,2.73
2017-12-09T08:24:25.320Z,2.79
2017-12-09T08:26:56.667Z,2.87
2017-12-09T08:29:28.402Z,2.90
2017-12-09T08:31:59.959Z,2.95
2017-12-09T08:34:31.500Z,2.93
2017-12-09T08:37:03.146Z,2.92
2017-12-09T08:39:34.679Z,2.94
2017-12-09T08:42:07.906Z,2.96
2017-12-09T08:44:39.620Z,3.03
2017-12-09T08:47:11.092Z,2.92
2017-12-09T08:49:43.167Z,2.81
2017-12-09T08:52:16.979Z,2.72
2017-12-09T08:54:48.962Z,2.75
2017-12-09T08:57:20.299Z,2.67
2017-12-09T08:59:51.880Z,2.70
2017-12-09T09:02:23.612Z,2.72
2017-12-09T09:04:55.916Z,2.66
2017-12-09T09:07:27.631Z,2.76
2017-12-09T09:10:00.285Z,2.67
2017-12-09T09:12:31.696Z,2.68
2017-12-09T09:15:04.480Z,2.81
2017-12-09T09:17:37.595Z,2.89
2017-12-09T09:20:11.575Z,2.96
2017-12-09T09:22:43.227Z,3.05
2017-12-09T09:25:14.928Z,3.07
2017-12-09T09:27:46.370Z,3.15
2017-12-09T09:30:17.871Z,3.17
2017-12-09T09:32:50.135Z,3.36
2017-12-09T09:35:21.556Z,3.50
2017-12-09T09:37:52.941Z,3.76
2017-12-09T09:40:24.646Z,3.94
2017-12-09T09:42:56.020Z,4.28
2017-12-09T09:45:27.416Z,5.12
2017-12-09T09:47:59.152Z,6.47
2017-12-09T09:50:33.391Z,8.25
2017-12-09T09:53:05.273Z,10.19
2017-12-09T09:55:36.968Z,11.44
2017-12-09T09:58:08.730Z,11.70
2017-12-09T10:00:40.476Z,12.45
2017-12-09T10:03:11.862Z,13.34
2017-12-09T10:05:43.533Z,13.31
2017-12-09T10:08:15.015Z,12.75
2017-12-09T10:10:46.599Z,13.96
2017-12-09T10:13:18.252Z,13.95
2017-12-09T10:15:49.633Z,15.10
2017-12-09T10:18:21.656Z,13.56
2017-12-09T10:20:53.674Z,13.37
2017-12-09T10:23:25.019Z,13.30
2017-12-09T10:25:56.728Z,13.16
2017-12-09T10:28:28.352Z,13.84
2017-12-09T10:30:59.743Z,13.35
2017-12-09T10:33:31.191Z,12.11
2017-12-09T10:36:04.834Z,11.84
2017-12-09T10:38:36.238Z,11.02
2017-12-09T10:41:07.889Z,10.83
2017-12-09T10:43:40.567Z,9.76
2017-12-09T10:46:13.637Z,9.44
2017-12-09T10:48:45.930Z,9.49
2017-12-09T10:51:17.311Z,10.05
2017-12-09T10:53:50.083Z,10.22
2017-12-09T10:56:22.312Z,9.15
2017-12-09T10:58:54.144Z,9.53
2017-12-09T11:01:25.526Z,9.68
2017-12-09T11:03:57.283Z,10.96
2017-12-09T11:06:28.826Z,12.13
2017-12-09T11:09:00.610Z,12.97
2017-12-09T11:11:32.929Z,13.74
2017-12-09T11:14:05.866Z,14.22
2017-12-09T11:16:37.820Z,14.18
2017-12-09T11:19:09.153Z,14.65
2017-12-09T11:21:43.361Z,15.40
2017-12-09T11:24:18.114Z,15.02
2017-12-09T11:26:50.605Z,15.19
2017-12-09T11:29:24.101Z,13.62
2017-12-09T11:31:56.638Z,12.61
2017-12-09T11:34:28.431Z,12.93
2017-12-09T11:37:02.079Z,12.51
2017-12-09T11:39:35.203Z,11.36
2017-12-09T11:42:07.046Z,11.53
2017-12-09T11:44:38.837Z,10.84
2017-12-09T11:47:10.375Z,10.32
2017-12-09T11:49:42.183Z,10.63
2017-12-09T11:52:17.601Z,10.03
2017-12-09T11:54:49.017Z,9.73
2017-12-09T11:57:20.772Z,9.26
2017-12-09T11:59:52.650Z,8.13
2017-12-09T12:02:24.626Z,7.30
2017-12-09T12:04:56.760Z,6.65
2017-12-09T12:07:28.651Z,6.30
2017-12-09T12:10:00.168Z,6.23
2017-12-09T12:12:32.030Z,6.04
2017-12-09T12:15:03.638Z,5.70
2017-12-09T12:17:35.085Z,5.65
2017-12-09T12:20:07.628Z,5.50
2017-12-09T12:22:39.398Z,5.52
2017-12-09T12:25:10.870Z,5.46
2017-12-09T12:27:42.631Z,5.23
2017-12-09T12:30:15.685Z,5.25
2017-12-09T12:32:47.390Z,5.19
2017-12-09T12:35:18.795Z,5.12
2017-12-09T12:37:50.223Z,4.39
2017-12-09T12:40:22.002Z,4.42
2017-12-09T12:42:55.532Z,4.45
2017-12-09T12:45:27.201Z,4.22
2017-12-09T12:47:58.564Z,4.17
2017-12-09T12:50:29.955Z,4.35
2017-12-09T12:53:02.018Z,4.34
2017-12-09T12:55:33.680Z,4.48
2017-12-09T12:58:06.965Z,4.74
2017-12-09T13:00:38.712Z,4.76
2017-12-09T13:03:10.105Z,4.57
2017-12-09T13:05:41.469Z,4.56
2017-12-09T13:08:14.460Z,4.48
2017-12-09T13:10:45.913Z,4.45
2017-12-09T13:13:17.580Z,4.30
2017-12-09T13:15:48.997Z,4.30
2017-12-09T13:18:20.579Z,4.23
2017-12-09T13:20:52.300Z,4.18
2017-12-09T13:23:23.639Z,4.08
2017-12-09T13:25:55.181Z,4.12
2017-12-09T13:28:26.920Z,4.13
2017-12-09T13:30:58.345Z,4.14
2017-12-09T13:33:30.041Z,3.82
2017-12-09T13:36:01.701Z,3.58
2017-12-09T13:38:33.251Z,3.60
2017-12-09T13:41:05.108Z,3.67
2017-12-09T13:43:38.360Z,3.69
2017-12-09T13:46:09.999Z,3.86
2017-12-09T13:48:42.601Z,3.66
2017-12-09T13:51:13.987Z,3.72
2017-12-09T13:53:47.314Z,3.88
2017-12-09T13:56:18.887Z,3.92
2017-12-09T13:58:50.516Z,3.92
2017-12-09T14:01:22.394Z,3.80
2017-12-09T14:03:53.804Z,3.76
2017-12-09T14:06:25.786Z,3.63
2017-12-09T14:08:57.352Z,3.56
2017-12-09T14:11:28.844Z,3.48
2017-12-09T14:14:00.703Z,3.54
2017-12-09T14:16:32.426Z,3.61
2017-12-09T14:19:04.225Z,3.55
2017-12-09T14:21:35.718Z,3.53
2017-12-09T14:24:07.542Z,3.60
2017-12-09T14:26:39.878Z,3.69
2017-12-09T14:29:11.535Z,3.52
2017-12-09T14:31:42.864Z,3.68
2017-12-09T14:34:14.864Z,3.72
2017-12-09T14:36:46.462Z,3.72
2017-12-09T14:39:18.199Z,3.67
2017-12-09T14:41:49.684Z,3.80
2017-12-09T14:44:22.324Z,3.84
2017-12-09T14:46:53.658Z,3.91
2017-12-09T14:49:26.007Z,3.81
2017-12-09T14:51:57.689Z,3.65
2017-12-09T14:54:29.162Z,3.72
2017-12-09T14:57:02.168Z,3.57
2017-12-09T14:59:33.784Z,3.48
2017-12-09T15:02:07.674Z,3.45
2017-12-09T15:04:40.168Z,3.48
2017-12-09T15:07:11.459Z,3.43
2017-12-09T15:09:44.560Z,3.37
2017-12-09T15:12:18.276Z,3.30
2017-12-09T15:14:49.608Z,3.29
2017-12-09T15:17:21.224Z,3.34
2017-12-09T15:19:54.702Z,3.43
2017-12-09T15:22:26.467Z,3.48
2017-12-09T15:24:57.999Z,3.47
2017-12-09T15:27:29.419Z,3.51
2017-12-09T15:30:03.890Z,3.51
2017-12-09T15:32:36.767Z,3.55
2017-12-09T15:35:08.471Z,3.62
2017-12-09T15:37:41.808Z,3.67
2017-12-09T15:40:15.864Z,3.69
2017-12-09T15:42:47.529Z,3.74
2017-12-09T15:45:19.155Z,3.74
2017-12-09T15:47:50.695Z,3.82
2017-12-09T15:50:22.523Z,3.86
2017-12-09T15:52:54.047Z,3.87
2017-12-09T15:55:25.732Z,3.87
2017-12-09T15:57:57.686Z,3.89
2017-12-09T16:00:29.647Z,3.86
2017-12-09T16:03:01.821Z,3.72
2017-12-09T16:05:33.240Z,3.75
2017-12-09T16:08:06.399Z,3.71
2017-12-09T16:10:38.295Z,3.71
2017-12-09T16:13:09.695Z,3.76
2017-12-09T16:15:42.402Z,3.78
2017-12-09T16:18:15.401Z,3.79
2017-12-09T16:20:48.214Z,3.81
2017-12-09T16:23:19.842Z,3.79
2017-12-09T16:25:51.826Z,3.85
2017-12-09T16:28:24.374Z,3.80
2017-12-09T16:30:56.339Z,3.82
2017-12-09T16:33:27.775Z,3.85
2017-12-09T16:35:59.621Z,3.84
2017-12-09T16:38:31.049Z,3.89
2017-12-09T16:41:04.118Z,3.87
2017-12-09T16:43:40.345Z,3.82
2017-12-09T16:46:16.924Z,3.81
2017-12-09T16:48:51.057Z,3.66
2017-12-09T16:51:24.141Z,3.72
2017-12-09T16:53:57.037Z,3.66
2017-12-09T16:56:30.798Z,3.64
2017-12-09T16:59:02.560Z,3.60
2017-12-09T17:01:35.040Z,3.59
2017-12-09T17:04:15.642Z,3.56
2017-12-09T17:06:50.051Z,3.52
2017-12-09T17:09:21.506Z,3.60
2017-12-09T17:11:53.685Z,3.53
2017-12-09T17:14:25.142Z,3.48
2017-12-09T17:16:58.271Z,3.46
2017-12-09T17:19:30.874Z,3.34
2017-12-09T17:22:06.802Z,3.39
2017-12-09T17:24:49.610Z,3.33
2017-12-09T17:27:21.912Z,3.36
2017-12-09T17:29:56.110Z,3.38
2017-12-09T17:32:29.061Z,3.41
2017-12-09T17:35:03.830Z,3.44
2017-12-09T17:37:36.850Z,3.49
2017-12-09T17:40:09.724Z,3.51
2017-12-09T17:42:44.157Z,3.52
2017-12-09T17:45:16.946Z,3.58
2017-12-09T17:47:49.206Z,3.55
2017-12-09T17:50:23.011Z,3.54
2017-12-09T17:52:56.216Z,3.52
2017-12-09T17:55:28.669Z,3.53
2017-12-09T17:58:00.077Z,3.47
2017-12-09T18:00:32.598Z,3.59
2017-12-09T18:03:05.127Z,3.55
2017-12-09T18:05:37.245Z,3.55
2017-12-09T18:08:34.379Z,3.49
2017-12-09T18:11:07.713Z,3.55
2017-12-09T18:13:39.907Z,3.55
2017-12-09T18:16:12.598Z,3.57
2017-12-09T18:18:44.730Z,3.53
2017-12-09T18:21:16.436Z,3.53
2017-12-09T18:23:49.700Z,3.44
2017-12-09T18:26:22.600Z,3.37
2017-12-09T18:28:54.026Z,3.52
2017-12-09T18:31:25.462Z,3.54
2017-12-09T18:34:00.182Z,3.48
2017-12-09T18:36:31.655Z,3.50
2017-12-09T18:39:06.314Z,3.49
2017-12-09T18:41:57.065Z,3.48
2017-12-09T18:44:31.664Z,3.45
2017-12-09T18:47:03.652Z,3.48
2017-12-09T18:49:35.478Z,3.51
2017-12-09T18:52:08.693Z,3.54
2017-12-09T18:54:40.217Z,3.54
2017-12-09T18:57:11.798Z,3.53
2017-12-09T18:59:44.915Z,3.55
2017-12-09T19:02:17.239Z,3.61
2017-12-09T19:04:48.974Z,3.63
2017-12-09T19:07:21.013Z,3.67
2017-12-09T19:09:52.621Z,3.56
2017-12-09T19:12:24.341Z,3.55
2017-12-09T19:14:55.829Z,3.56
2017-12-09T19:17:27.383Z,3.57
2017-12-09T19:19:58.830Z,3.43
2017-12-09T19:22:30.296Z,3.30
2017-12-09T19:25:02.771Z,3.41
2017-12-09T19:27:34.516Z,3.37
2017-12-09T19:30:09.168Z,3.40
2017-12-09T19:32:41.174Z,3.41
2017-12-09T19:35:12.597Z,3.43
2017-12-09T19:37:44.119Z,3.43
2017-12-09T19:40:15.618Z,3.48
2017-12-09T19:42:47.121Z,3.48
2017-12-09T19:45:19.202Z,3.49
2017-12-09T19:47:50.597Z,3.39
2017-12-09T19:50:22.280Z,3.38
2017-12-09T19:52:56.437Z,3.28
2017-12-09T19:55:29.135Z,3.26
2017-12-09T19:58:01.547Z,3.19
2017-12-09T20:00:34.513Z,3.29
2017-12-09T20:03:05.949Z,3.27
2017-12-09T20:05:37.803Z,3.23
2017-12-09T20:08:11.033Z,3.21
2017-12-09T20:10:42.415Z,3.14
2017-12-09T20:13:14.108Z,3.10
2017-12-09T20:15:45.548Z,3.10
2017-12-09T20:18:17.932Z,3.04
2017-12-09T20:20:49.350Z,2.98
2017-12-09T20:23:20.771Z,2.91
2017-12-09T20:25:54.795Z,2.92
2017-12-09T20:28:26.735Z,3.00
2017-12-09T20:30:58.300Z,2.98
2017-12-09T20:33:31.000Z,2.99
2017-12-09T20:36:04.183Z,2.97
2017-12-09T20:38:36.721Z,2.96
2017-12-09T20:41:08.259Z,2.93
2017-12-09T20:43:42.632Z,2.92
2017-12-09T20:46:18.025Z,2.90
2017-12-09T20:48:51.434Z,2.86
2017-12-09T20:51:57.136Z,2.94
2017-12-09T20:54:34.808Z,2.87
2017-12-09T20:57:06.506Z,2.89
2017-12-09T20:59:39.390Z,2.89
2017-12-09T21:02:19.518Z,2.93
2017-12-09T21:04:51.824Z,2.86
2017-12-09T21:07:24.197Z,2.89
2017-12-09T21:09:56.929Z,2.89
2017-12-09T21:12:31.185Z,2.87
2017-12-09T21:15:07.675Z,2.82
2017-12-09T21:17:39.240Z,2.85
2017-12-09T21:20:11.043Z,2.85
2017-12-09T21:22:42.486Z,2.90
2017-12-09T21:25:13.921Z,2.83
2017-12-09T21:27:46.149Z,2.84
2017-12-09T21:30:18.687Z,2.82
2017-12-09T21:32:52.225Z,2.85
2017-12-09T21:35:23.861Z,2.86
2017-12-09T21:37:55.664Z,2.92
2017-12-09T21:40:27.020Z,2.88
2017-12-09T21:42:58.979Z,2.86
2017-12-09T21:45:31.776Z,2.87
2017-12-09T21:48:06.262Z,2.82
2017-12-09T21:50:38.032Z,2.84
2017-12-09T21:53:09.922Z,2.84
2017-12-09T21:55:45.116Z,2.86
2017-12-09T21:58:17.327Z,2.75
2017-12-09T22:00:48.764Z,2.73
2017-12-09T22:03:22.051Z,2.77
2017-12-09T22:05:57.449Z,2.73
2017-12-09T22:08:30.268Z,2.66
2017-12-09T22:11:02.561Z,2.62
2017-12-09T22:13:35.270Z,2.51
2017-12-09T22:16:08.794Z,2.52
2017-12-09T22:18:41.599Z,2.51
2017-12-09T22:21:15.851Z,2.49
2017-12-09T22:23:48.489Z,2.49
2017-12-09T22:26:21.790Z,2.45
2017-12-09T22:28:54.099Z,2.45
2017-12-09T22:31:25.804Z,2.42
2017-12-09T22:33:58.423Z,2.31
2017-12-09T22:36:30.324Z,2.27
2017-12-09T22:39:04.253Z,2.28
2017-12-09T22:41:37.082Z,2.24
2017-12-09T22:44:10.596Z,2.21
2017-12-09T22:46:42.591Z,2.24
2017-12-09T22:49:15.040Z,2.20
2017-12-09T22:51:46.805Z,2.15
2017-12-09T22:54:18.229Z,2.12
2017-12-09T22:56:50.635Z,2.08
2017-12-09T22:59:23.085Z,2.10
2017-12-09T23:01:54.940Z,2.08
2017-12-09T23:04:27.713Z,2.05
2017-12-09T23:07:00.229Z,2.06
2017-12-09T23:09:32.956Z,2.11
2017-12-09T23:12:06.750Z,2.00
2017-12-09T23:14:39.979Z,1.99
2017-12-09T23:17:11.430Z,2.00
2017-12-09T23:19:43.082Z,2.06
2017-12-09T23:22:16.962Z,2.06
2017-12-09T23:24:48.417Z,2.08
2017-12-09T23:27:20.180Z,2.05
2017-12-09T23:29:56.339Z,2.06
2017-12-09T23:32:28.603Z,2.08
2017-12-09T23:35:04.387Z,2.05
2017-12-09T23:37:40.634Z,2.09
2017-12-09T23:40:14.721Z,2.04
2017-12-09T23:42:48.980Z,2.06
2017-12-09T23:45:21.228Z,2.06
2017-12-09T23:47:52.913Z,2.05
2017-12-09T23:50:26.655Z,2.01
2017-12-09T23:53:00.719Z,2.02
2017-12-09T23:55:32.627Z,2.00
2017-12-09T23:58:06.879Z,1.94
